Aviation Digital Data Service (ADDS)

Output produced by METARs form (2340 UTC 20 January 2019)
found at http://www.aviationweather.gov/metar/data/
 
Forecast for: RJOT (TAKAMATSU AIRPOR, JP)
Text: TAF RJOT 202309Z 2100/2206 26013KT 9999 FEW020 SCT050
Forecast period: 0000 UTC 21 January 2019 to 0600 UTC 22 January 2019
Forecast type: FROM: standard forecast or significant change
Winds: from the W (260 degrees) at 15 MPH (13 knots; 6.7 m/s)
Visibility: 6 or more miles 10+ km)
Ceiling: at least 12,000 feet AGL
Clouds: few clouds at 2000 feet AGL
scattered clouds at 5000 feet AGL
Weather: no significant weather forecast for this period